sensor_id;sensor_type;location;lat;lon;timestamp;pressure;altitude;pressure_sealevel;temperature;humidity
11053;BME280;55230;42.602;23.470;2024-01-16T00:02:03;92012.66;;;0.62;76.42
11053;BME280;55230;42.602;23.470;2024-01-16T00:08:39;92008.31;;;0.18;80.23
11053;BME280;55230;42.602;23.470;2024-01-16T00:19:17;92023.19;;;0.28;83.12
11053;BME280;55230;42.602;23.470;2024-01-16T01:22:39;92046.00;;;0.04;80.79
11053;BME280;55230;42.602;23.470;2024-01-16T01:25:17;92057.00;;;-0.05;81.34
11053;BME280;55230;42.602;23.470;2024-01-16T01:27:58;92050.41;;;-0.18;80.79
11053;BME280;55230;42.602;23.470;2024-01-16T01:30:39;92052.41;;;-0.11;81.09
11053;BME280;55230;42.602;23.470;2024-01-16T01:33:41;92083.34;;;0.12;80.89
11053;BME280;55230;42.602;23.470;2024-01-16T01:36:30;92067.25;;;0.20;80.17
11053;BME280;55230;42.602;23.470;2024-01-16T01:39:09;92095.69;;;0.34;81.36
11053;BME280;55230;42.602;23.470;2024-01-16T02:34:29;92091.06;;;1.70;82.81
11053;BME280;55230;42.602;23.470;2024-01-16T02:37:29;92103.16;;;1.85;84.11
11053;BME280;55230;42.602;23.470;2024-01-16T02:40:16;92085.31;;;1.85;84.53
11053;BME280;55230;42.602;23.470;2024-01-16T02:45:56;92102.66;;;1.80;84.15
11053;BME280;55230;42.602;23.470;2024-01-16T02:48:39;92111.75;;;1.93;83.91
11053;BME280;55230;42.602;23.470;2024-01-16T02:51:24;92155.44;;;1.79;86.12
11053;BME280;55230;42.602;23.470;2024-01-16T02:53:57;92123.47;;;1.69;85.28
11053;BME280;55230;42.602;23.470;2024-01-16T02:56:25;92166.09;;;1.57;88.06
11053;BME280;55230;42.602;23.470;2024-01-16T03:24:11;92227.66;;;2.20;85.74
11053;BME280;55230;42.602;23.470;2024-01-16T03:26:39;92235.00;;;2.61;84.31
11053;BME280;55230;42.602;23.470;2024-01-16T03:29:08;92219.09;;;2.40;83.85
11053;BME280;55230;42.602;23.470;2024-01-16T03:31:36;92255.47;;;2.49;85.08
11053;BME280;55230;42.602;23.470;2024-01-16T03:34:04;92255.47;;;2.37;85.90
11053;BME280;55230;42.602;23.470;2024-01-16T03:36:33;92276.72;;;2.53;85.60
11053;BME280;55230;42.602;23.470;2024-01-16T03:38:58;92292.03;;;2.53;84.81
11053;BME280;55230;42.602;23.470;2024-01-16T03:41:30;92289.28;;;2.46;84.70
11053;BME280;55230;42.602;23.470;2024-01-16T03:43:57;92280.28;;;2.12;85.83
11053;BME280;55230;42.602;23.470;2024-01-16T03:46:26;92291.00;;;2.05;87.32
11053;BME280;55230;42.602;23.470;2024-01-16T03:48:52;92311.84;;;2.07;87.28
11053;BME280;55230;42.602;23.470;2024-01-16T03:51:17;92302.91;;;2.01;86.99
11053;BME280;55230;42.602;23.470;2024-01-16T03:54:14;92303.88;;;1.97;88.31
11053;BME280;55230;42.602;23.470;2024-01-16T03:59:19;92296.94;;;1.61;88.81
11053;BME280;55230;42.602;23.470;2024-01-16T04:01:48;92308.94;;;1.60;89.07
11053;BME280;55230;42.602;23.470;2024-01-16T04:04:23;92334.78;;;1.71;88.71
11053;BME280;55230;42.602;23.470;2024-01-16T04:07:25;92336.88;;;1.57;89.46
11053;BME280;55230;42.602;23.470;2024-01-16T04:09:43;92344.38;;;1.41;89.44
11053;BME280;55230;42.602;23.470;2024-01-16T04:12:09;92347.84;;;1.36;89.79
11053;BME280;55230;42.602;23.470;2024-01-16T04:14:36;92348.91;;;1.35;89.32
11053;BME280;55230;42.602;23.470;2024-01-16T04:17:02;92356.38;;;1.20;89.67
11053;BME280;55230;42.602;23.470;2024-01-16T04:19:28;92367.53;;;1.15;90.20
11053;BME280;55230;42.602;23.470;2024-01-16T04:21:53;92391.44;;;1.23;90.41
11053;BME280;55230;42.602;23.470;2024-01-16T04:24:19;92386.34;;;1.02;90.52
11053;BME280;55230;42.602;23.470;2024-01-16T04:26:44;92400.38;;;1.08;90.05
11053;BME280;55230;42.602;23.470;2024-01-16T04:29:10;92381.94;;;0.90;89.24
11053;BME280;55230;42.602;23.470;2024-01-16T04:31:40;92395.69;;;0.98;88.68
11053;BME280;55230;42.602;23.470;2024-01-16T04:34:17;92388.38;;;0.88;88.21
11053;BME280;55230;42.602;23.470;2024-01-16T04:36:42;92381.13;;;0.78;88.25
11053;BME280;55230;42.602;23.470;2024-01-16T04:39:11;92416.34;;;0.96;88.03
11053;BME280;55230;42.602;23.470;2024-01-16T04:41:39;92402.69;;;0.80;88.01
11053;BME280;55230;42.602;23.470;2024-01-16T04:44:05;92411.53;;;0.74;88.06
11053;BME280;55230;42.602;23.470;2024-01-16T04:46:30;92438.88;;;0.86;87.98
11053;BME280;55230;42.602;23.470;2024-01-16T04:48:56;92429.56;;;0.90;87.34
11053;BME280;55230;42.602;23.470;2024-01-16T04:52:02;92398.75;;;0.62;87.57
11053;BME280;55230;42.602;23.470;2024-01-16T04:54:35;92400.72;;;0.56;87.67
11053;BME280;55230;42.602;23.470;2024-01-16T04:57:01;92452.28;;;0.74;87.26
11053;BME280;55230;42.602;23.470;2024-01-16T04:59:26;92448.38;;;0.77;86.59
11053;BME280;55230;42.602;23.470;2024-01-16T05:01:52;92432.88;;;0.61;87.81
11053;BME280;55230;42.602;23.470;2024-01-16T05:04:17;92438.44;;;0.54;87.36
11053;BME280;55230;42.602;23.470;2024-01-16T05:06:43;92435.88;;;0.54;86.08
11053;BME280;55230;42.602;23.470;2024-01-16T05:09:09;92464.41;;;0.68;85.46
11053;BME280;55230;42.602;23.470;2024-01-16T05:11:34;92495.53;;;0.74;86.60
11053;BME280;55230;42.602;23.470;2024-01-16T05:14:00;92513.06;;;0.76;86.25
11053;BME280;55230;42.602;23.470;2024-01-16T05:16:26;92501.75;;;0.56;85.12
11053;BME280;55230;42.602;23.470;2024-01-16T05:18:52;92519.72;;;0.59;86.53
11053;BME280;55230;42.602;23.470;2024-01-16T05:21:21;92521.56;;;0.50;86.59
11053;BME280;55230;42.602;23.470;2024-01-16T05:23:47;92487.19;;;0.18;86.62
11053;BME280;55230;42.602;23.470;2024-01-16T05:26:12;92530.84;;;0.46;87.01
11053;BME280;55230;42.602;23.470;2024-01-16T05:28:38;92531.28;;;0.48;86.83
11053;BME280;55230;42.602;23.470;2024-01-16T05:31:04;92515.44;;;0.34;86.63
11053;BME280;55230;42.602;23.470;2024-01-16T05:33:29;92536.38;;;0.48;86.65
11053;BME280;55230;42.602;23.470;2024-01-16T05:35:58;92535.19;;;0.37;86.61
11053;BME280;55230;42.602;23.470;2024-01-16T05:38:24;92551.16;;;0.55;85.89
11053;BME280;55230;42.602;23.470;2024-01-16T05:40:52;92528.94;;;0.26;85.46
11053;BME280;55230;42.602;23.470;2024-01-16T05:43:17;92535.06;;;0.25;84.21
11053;BME280;55230;42.602;23.470;2024-01-16T05:45:43;92556.00;;;0.39;83.44
11053;BME280;55230;42.602;23.470;2024-01-16T05:48:08;92571.38;;;0.51;83.34
11053;BME280;55230;42.602;23.470;2024-01-16T05:50:35;92563.34;;;0.32;82.69
11053;BME280;55230;42.602;23.470;2024-01-16T05:53:01;92560.06;;;0.23;82.14
11053;BME280;55230;42.602;23.470;2024-01-16T05:55:27;92583.56;;;0.28;83.61
11053;BME280;55230;42.602;23.470;2024-01-16T05:57:53;92581.91;;;0.32;82.49
11053;BME280;55230;42.602;23.470;2024-01-16T06:03:28;92604.19;;;0.35;82.48
11053;BME280;55230;42.602;23.470;2024-01-16T06:05:53;92608.25;;;0.28;81.38
11053;BME280;55230;42.602;23.470;2024-01-16T06:08:25;92626.03;;;0.37;80.26
11053;BME280;55230;42.602;23.470;2024-01-16T06:11:08;92622.31;;;0.08;80.31
11053;BME280;55230;42.602;23.470;2024-01-16T06:13:48;92636.22;;;0.11;79.77
11053;BME280;55230;42.602;23.470;2024-01-16T06:16:14;92646.69;;;0.09;80.63
11053;BME280;55230;42.602;23.470;2024-01-16T06:18:49;92665.56;;;0.17;81.31
11053;BME280;55230;42.602;23.470;2024-01-16T06:21:17;92665.09;;;0.06;81.43
11053;BME280;55230;42.602;23.470;2024-01-16T06:26:54;92663.59;;;-0.04;82.14
11053;BME280;55230;42.602;23.470;2024-01-16T06:29:19;92670.31;;;-0.08;81.71
11053;BME280;55230;42.602;23.470;2024-01-16T06:31:45;92708.19;;;0.11;81.61
11053;BME280;55230;42.602;23.470;2024-01-16T06:34:13;92682.56;;;-0.18;81.64
11053;BME280;55230;42.602;23.470;2024-01-16T06:36:39;92710.69;;;0.03;82.52
11053;BME280;55230;42.602;23.470;2024-01-16T06:39:08;92707.41;;;-0.07;81.63
11053;BME280;55230;42.602;23.470;2024-01-16T06:41:33;92741.41;;;0.15;81.53
11053;BME280;55230;42.602;23.470;2024-01-16T06:43:58;92711.44;;;-0.06;81.00
11053;BME280;55230;42.602;23.470;2024-01-16T06:46:27;92718.75;;;-0.13;82.62
11053;BME280;55230;42.602;23.470;2024-01-16T06:48:57;92726.09;;;-0.11;82.23
11053;BME280;55230;42.602;23.470;2024-01-16T06:51:23;92730.59;;;-0.08;82.40
11053;BME280;55230;42.602;23.470;2024-01-16T07:28:01;92836.66;;;-0.31;78.20
11053;BME280;55230;42.602;23.470;2024-01-16T07:30:27;92857.59;;;-0.34;78.91
11053;BME280;55230;42.602;23.470;2024-01-16T07:32:52;92868.66;;;-0.30;79.75
11053;BME280;55230;42.602;23.470;2024-01-16T07:35:30;92873.00;;;-0.30;78.79
11053;BME280;55230;42.602;23.470;2024-01-16T07:37:56;92838.25;;;-0.44;79.58
11053;BME280;55230;42.602;23.470;2024-01-16T07:40:21;92858.00;;;-0.41;78.22
11053;BME280;55230;42.602;23.470;2024-01-16T07:46:09;92872.03;;;-0.43;78.48
11053;BME280;55230;42.602;23.470;2024-01-16T07:48:44;92853.44;;;-0.52;79.02
11053;BME280;55230;42.602;23.470;2024-01-16T07:54:31;92906.41;;;-0.15;79.00
11053;BME280;55230;42.602;23.470;2024-01-16T07:57:23;92887.13;;;-0.16;77.20
11053;BME280;55230;42.602;23.470;2024-01-16T07:59:48;92883.91;;;-0.30;78.26
11053;BME280;55230;42.602;23.470;2024-01-16T08:02:21;92884.13;;;-0.18;77.94
11053;BME280;55230;42.602;23.470;2024-01-16T08:04:47;92886.16;;;-0.28;77.40
11053;BME280;55230;42.602;23.470;2024-01-16T08:07:16;92920.78;;;-0.19;76.30
11053;BME280;55230;42.602;23.470;2024-01-16T08:14:58;92923.81;;;-0.08;75.69
11053;BME280;55230;42.602;23.470;2024-01-16T08:20:05;92912.03;;;-0.04;76.47
11053;BME280;55230;42.602;23.470;2024-01-16T08:22:39;92932.53;;;-0.01;77.24
11053;BME280;55230;42.602;23.470;2024-01-16T08:25:11;92926.00;;;-0.15;76.37
11053;BME280;55230;42.602;23.470;2024-01-16T08:27:37;92954.63;;;-0.10;77.46
11053;BME280;55230;42.602;23.470;2024-01-16T08:30:05;92936.88;;;-0.23;77.49
11053;BME280;55230;42.602;23.470;2024-01-16T08:32:35;92936.72;;;-0.27;78.59
11053;BME280;55230;42.602;23.470;2024-01-16T08:35:01;92958.84;;;-0.05;78.49
11053;BME280;55230;42.602;23.470;2024-01-16T08:37:29;92937.09;;;-0.33;78.52
11053;BME280;55230;42.602;23.470;2024-01-16T08:39:55;92954.69;;;-0.23;77.42
11053;BME280;55230;42.602;23.470;2024-01-16T08:42:21;92988.69;;;-0.11;77.05
11053;BME280;55230;42.602;23.470;2024-01-16T08:45:10;92979.09;;;-0.14;77.76
11053;BME280;55230;42.602;23.470;2024-01-16T08:47:38;92986.97;;;-0.24;76.85
11053;BME280;55230;42.602;23.470;2024-01-16T08:50:03;92983.97;;;-0.26;77.20
11053;BME280;55230;42.602;23.470;2024-01-16T08:52:29;92987.25;;;-0.25;77.77
11053;BME280;55230;42.602;23.470;2024-01-16T08:54:55;92983.25;;;-0.40;76.94
11053;BME280;55230;42.602;23.470;2024-01-16T08:57:21;93032.78;;;-0.15;77.83
11053;BME280;55230;42.602;23.470;2024-01-16T08:59:50;93025.56;;;-0.22;77.12
11053;BME280;55230;42.602;23.470;2024-01-16T09:02:15;93021.16;;;-0.30;76.85
11053;BME280;55230;42.602;23.470;2024-01-16T09:07:27;93047.91;;;-0.32;77.30
11053;BME280;55230;42.602;23.470;2024-01-16T09:10:11;93023.09;;;-0.49;76.52
11053;BME280;55230;42.602;23.470;2024-01-16T09:12:37;93020.38;;;-0.53;76.91
11053;BME280;55230;42.602;23.470;2024-01-16T09:15:06;93034.56;;;-0.38;76.75
11053;BME280;55230;42.602;23.470;2024-01-16T09:17:31;93026.66;;;-0.37;76.38
11053;BME280;55230;42.602;23.470;2024-01-16T09:19:57;93013.66;;;-0.35;76.68
11053;BME280;55230;42.602;23.470;2024-01-16T09:22:22;93036.22;;;-0.20;76.45
11053;BME280;55230;42.602;23.470;2024-01-16T09:24:48;93025.00;;;-0.19;75.91
11053;BME280;55230;42.602;23.470;2024-01-16T09:27:13;93024.44;;;-0.29;76.21
11053;BME280;55230;42.602;23.470;2024-01-16T09:29:41;93033.16;;;-0.08;76.44
11053;BME280;55230;42.602;23.470;2024-01-16T09:32:07;93057.59;;;0.02;75.26
11053;BME280;55230;42.602;23.470;2024-01-16T09:34:33;93035.28;;;-0.24;76.42
11053;BME280;55230;42.602;23.470;2024-01-16T09:36:58;93053.16;;;0.07;75.33
11053;BME280;55230;42.602;23.470;2024-01-16T09:39:26;93054.75;;;0.03;75.55
11053;BME280;55230;42.602;23.470;2024-01-16T09:41:51;93068.63;;;0.19;74.94
11053;BME280;55230;42.602;23.470;2024-01-16T09:44:17;93034.19;;;-0.09;74.68
11053;BME280;55230;42.602;23.470;2024-01-16T09:46:44;93052.88;;;0.09;73.99
11053;BME280;55230;42.602;23.470;2024-01-16T09:49:12;93042.59;;;0.14;73.96
11053;BME280;55230;42.602;23.470;2024-01-16T09:51:39;93038.56;;;0.21;73.71
11053;BME280;55230;42.602;23.470;2024-01-16T09:54:05;93060.91;;;0.24;73.87
11053;BME280;55230;42.602;23.470;2024-01-16T09:56:35;93053.47;;;0.37;73.53
11053;BME280;55230;42.602;23.470;2024-01-16T09:59:05;93053.72;;;0.26;72.23
11053;BME280;55230;42.602;23.470;2024-01-16T10:01:33;93076.63;;;0.26;72.47
11053;BME280;55230;42.602;23.470;2024-01-16T10:03:58;93075.41;;;0.46;73.35
11053;BME280;55230;42.602;23.470;2024-01-16T10:06:27;93077.03;;;0.42;71.51
11053;BME280;55230;42.602;23.470;2024-01-16T10:08:52;93068.38;;;0.52;71.54
11053;BME280;55230;42.602;23.470;2024-01-16T10:11:18;93052.16;;;0.39;72.41
11053;BME280;55230;42.602;23.470;2024-01-16T10:13:44;93070.03;;;0.48;71.23
11053;BME280;55230;42.602;23.470;2024-01-16T10:16:10;93037.13;;;0.29;72.15
11053;BME280;55230;42.602;23.470;2024-01-16T10:18:35;93056.09;;;0.45;72.05
11053;BME280;55230;42.602;23.470;2024-01-16T10:21:03;93027.06;;;0.46;71.80
11053;BME280;55230;42.602;23.470;2024-01-16T10:23:30;93070.97;;;0.83;70.95
11053;BME280;55230;42.602;23.470;2024-01-16T10:28:33;93049.31;;;0.41;70.29
11053;BME280;55230;42.602;23.470;2024-01-16T10:31:05;93075.72;;;0.76;70.56
11053;BME280;55230;42.602;23.470;2024-01-16T10:33:31;93088.25;;;0.94;70.73
11053;BME280;55230;42.602;23.470;2024-01-16T10:36:17;93051.63;;;0.82;69.85
11053;BME280;55230;42.602;23.470;2024-01-16T10:39:03;93078.81;;;0.95;69.80
11053;BME280;55230;42.602;23.470;2024-01-16T10:41:37;93057.34;;;0.87;69.28
11053;BME280;55230;42.602;23.470;2024-01-16T10:44:07;93075.91;;;0.88;70.05
11053;BME280;55230;42.602;23.470;2024-01-16T10:46:33;93062.06;;;0.72;69.95
11053;BME280;55230;42.602;23.470;2024-01-16T10:49:05;93045.84;;;0.67;68.88
11053;BME280;55230;42.602;23.470;2024-01-16T10:51:38;93063.25;;;1.05;68.83
11053;BME280;55230;42.602;23.470;2024-01-16T10:54:06;93060.69;;;1.05;68.89
11053;BME280;55230;42.602;23.470;2024-01-16T10:56:44;93060.84;;;1.00;68.03
11053;BME280;55230;42.602;23.470;2024-01-16T10:59:18;93098.50;;;1.60;67.43
11053;BME280;55230;42.602;23.470;2024-01-16T11:02:08;93068.28;;;1.36;66.71
11053;BME280;55230;42.602;23.470;2024-01-16T11:04:38;93060.00;;;1.96;64.16
11053;BME280;55230;42.602;23.470;2024-01-16T11:07:05;93061.19;;;1.98;63.55
11053;BME280;55230;42.602;23.470;2024-01-16T11:09:31;93064.91;;;2.18;63.96
11053;BME280;55230;42.602;23.470;2024-01-16T11:11:57;93056.34;;;1.54;65.11
11053;BME280;55230;42.602;23.470;2024-01-16T11:14:24;93062.16;;;1.37;63.67
11053;BME280;55230;42.602;23.470;2024-01-16T11:39:26;93085.00;;;1.51;64.00
11053;BME280;55230;42.602;23.470;2024-01-16T12:03:21;93122.72;;;1.97;65.17
11053;BME280;55230;42.602;23.470;2024-01-16T12:05:56;93087.16;;;1.35;64.58
11053;BME280;55230;42.602;23.470;2024-01-16T12:08:22;93101.75;;;1.43;65.79
11053;BME280;55230;42.602;23.470;2024-01-16T12:10:51;93101.81;;;1.60;65.63
11053;BME280;55230;42.602;23.470;2024-01-16T12:13:17;93094.69;;;1.31;64.73
11053;BME280;55230;42.602;23.470;2024-01-16T12:15:46;93117.97;;;1.47;64.75
11053;BME280;55230;42.602;23.470;2024-01-16T12:18:18;93100.06;;;1.30;66.87
11053;BME280;55230;42.602;23.470;2024-01-16T12:20:47;93104.19;;;1.09;65.91
11053;BME280;55230;42.602;23.470;2024-01-16T12:23:15;93127.06;;;1.39;65.95
11053;BME280;55230;42.602;23.470;2024-01-16T12:25:54;93127.72;;;1.54;65.73
11053;BME280;55230;42.602;23.470;2024-01-16T12:28:42;93104.06;;;1.14;66.96
11053;BME280;55230;42.602;23.470;2024-01-16T12:31:17;93151.56;;;1.49;66.94
11053;BME280;55230;42.602;23.470;2024-01-16T12:40:11;93152.84;;;1.29;67.51
11053;BME280;55230;42.602;23.470;2024-01-16T12:42:39;93115.69;;;1.06;67.20
11053;BME280;55230;42.602;23.470;2024-01-16T12:45:23;93128.91;;;1.08;67.80
11053;BME280;55230;42.602;23.470;2024-01-16T12:47:53;93148.34;;;1.04;68.11
11053;BME280;55230;42.602;23.470;2024-01-16T12:50:53;93168.44;;;1.36;68.39
11053;BME280;55230;42.602;23.470;2024-01-16T12:53:43;93135.97;;;1.11;67.72
11053;BME280;55230;42.602;23.470;2024-01-16T12:56:12;93166.72;;;1.23;66.82
11053;BME280;55230;42.602;23.470;2024-01-16T12:58:38;93145.81;;;1.04;66.71
11053;BME280;55230;42.602;23.470;2024-01-16T13:01:44;93157.13;;;1.20;67.71
11053;BME280;55230;42.602;23.470;2024-01-16T13:04:12;93165.59;;;1.07;66.39
11053;BME280;55230;42.602;23.470;2024-01-16T13:06:41;93137.88;;;1.05;66.28
11053;BME280;55230;42.602;23.470;2024-01-16T13:09:10;93133.66;;;1.01;66.22
11053;BME280;55230;42.602;23.470;2024-01-16T13:12:00;93131.66;;;1.20;65.02
11053;BME280;55230;42.602;23.470;2024-01-16T13:14:25;93166.63;;;1.37;64.64
11053;BME280;55230;42.602;23.470;2024-01-16T13:16:53;93157.63;;;1.31;64.94
11053;BME280;55230;42.602;23.470;2024-01-16T13:19:22;93134.47;;;1.10;65.46
11053;BME280;55230;42.602;23.470;2024-01-16T13:21:48;93162.09;;;1.25;65.58
11053;BME280;55230;42.602;23.470;2024-01-16T13:24:14;93169.19;;;1.37;66.48
11053;BME280;55230;42.602;23.470;2024-01-16T13:26:39;93163.06;;;1.07;65.47
11053;BME280;55230;42.602;23.470;2024-01-16T13:29:07;93167.66;;;0.96;66.94
11053;BME280;55230;42.602;23.470;2024-01-16T13:32:12;93182.75;;;0.93;66.88
11053;BME280;55230;42.602;23.470;2024-01-16T13:34:41;93191.72;;;1.13;68.01
11053;BME280;55230;42.602;23.470;2024-01-16T13:37:19;93161.25;;;1.08;67.02
11053;BME280;55230;42.602;23.470;2024-01-16T13:39:46;93168.59;;;0.78;66.95
11053;BME280;55230;42.602;23.470;2024-01-16T13:42:12;93164.78;;;0.67;68.67
11053;BME280;55230;42.602;23.470;2024-01-16T13:44:58;93172.09;;;0.68;66.69
11053;BME280;55230;42.602;23.470;2024-01-16T13:47:23;93186.06;;;0.71;67.70
11053;BME280;55230;42.602;23.470;2024-01-16T13:49:49;93199.50;;;0.63;69.12
11053;BME280;55230;42.602;23.470;2024-01-16T13:52:14;93169.16;;;0.53;68.23
11053;BME280;55230;42.602;23.470;2024-01-16T13:54:40;93192.59;;;0.63;69.62
11053;BME280;55230;42.602;23.470;2024-01-16T16:23:15;93290.63;;;-1.70;78.18
11053;BME280;55230;42.602;23.470;2024-01-16T16:34:24;93312.41;;;-1.69;79.12
11053;BME280;55230;42.602;23.470;2024-01-16T16:36:55;93305.66;;;-1.79;77.93
11053;BME280;55230;42.602;23.470;2024-01-16T16:39:44;93300.50;;;-1.92;80.41
11053;BME280;55230;42.602;23.470;2024-01-16T16:44:49;93317.53;;;-1.98;80.25
11053;BME280;55230;42.602;23.470;2024-01-16T16:49:50;93298.50;;;-2.19;81.00
11053;BME280;55230;42.602;23.470;2024-01-16T16:52:15;93299.34;;;-2.29;81.64
11053;BME280;55230;42.602;23.470;2024-01-16T16:54:52;93303.13;;;-2.26;81.71
11053;BME280;55230;42.602;23.470;2024-01-16T17:00:07;93298.81;;;-2.26;81.31
11053;BME280;55230;42.602;23.470;2024-01-16T17:02:34;93321.03;;;-2.18;81.12
11053;BME280;55230;42.602;23.470;2024-01-16T17:05:02;93315.50;;;-2.20;80.47
11053;BME280;55230;42.602;23.470;2024-01-16T17:07:31;93315.00;;;-2.22;80.43
11053;BME280;55230;42.602;23.470;2024-01-16T17:10:02;93330.56;;;-2.04;80.14
11053;BME280;55230;42.602;23.470;2024-01-16T17:12:27;93333.78;;;-1.99;80.77
11053;BME280;55230;42.602;23.470;2024-01-16T17:14:53;93304.41;;;-2.29;81.67
11053;BME280;55230;42.602;23.470;2024-01-16T17:17:20;93349.81;;;-2.03;81.37
11053;BME280;55230;42.602;23.470;2024-01-16T17:19:46;93329.19;;;-2.21;81.64
11053;BME280;55230;42.602;23.470;2024-01-16T17:22:12;93342.13;;;-2.22;82.29
11053;BME280;55230;42.602;23.470;2024-01-16T17:24:37;93323.94;;;-2.29;80.99
11053;BME280;55230;42.602;23.470;2024-01-16T17:27:03;93337.75;;;-2.17;81.86
11053;BME280;55230;42.602;23.470;2024-01-16T17:29:29;93340.09;;;-2.20;82.46
11053;BME280;55230;42.602;23.470;2024-01-16T17:35:16;93334.59;;;-2.32;81.98
11053;BME280;55230;42.602;23.470;2024-01-16T17:41:07;93321.03;;;-2.47;80.34
11053;BME280;55230;42.602;23.470;2024-01-16T17:43:56;93323.28;;;-2.40;80.08
11053;BME280;55230;42.602;23.470;2024-01-16T17:46:57;93325.03;;;-2.35;79.99
11053;BME280;55230;42.602;23.470;2024-01-16T17:50:09;93318.47;;;-2.41;79.40
11053;BME280;55230;42.602;23.470;2024-01-16T17:55:28;93344.31;;;-2.39;80.44
11053;BME280;55230;42.602;23.470;2024-01-16T17:57:59;93348.50;;;-2.30;80.37
11053;BME280;55230;42.602;23.470;2024-01-16T18:00:34;93348.28;;;-2.33;80.44
11053;BME280;55230;42.602;23.470;2024-01-16T18:03:12;93336.56;;;-2.53;79.91
11053;BME280;55230;42.602;23.470;2024-01-16T18:09:08;93345.00;;;-2.63;81.41
11053;BME280;55230;42.602;23.470;2024-01-16T18:11:57;93382.56;;;-2.41;80.82
11053;BME280;55230;42.602;23.470;2024-01-16T18:14:27;93384.13;;;-2.50;81.51
11053;BME280;55230;42.602;23.470;2024-01-16T18:16:53;93367.53;;;-2.66;81.67
11053;BME280;55230;42.602;23.470;2024-01-16T18:19:23;93332.00;;;-2.85;81.29
11053;BME280;55230;42.602;23.470;2024-01-16T18:21:54;93344.59;;;-2.75;81.23
11053;BME280;55230;42.602;23.470;2024-01-16T18:24:28;93331.78;;;-2.89;82.20
11053;BME280;55230;42.602;23.470;2024-01-16T18:26:54;93355.69;;;-2.71;80.72
11053;BME280;55230;42.602;23.470;2024-01-16T18:29:20;93362.44;;;-2.61;80.83
11053;BME280;55230;42.602;23.470;2024-01-16T18:31:47;93367.09;;;-2.68;81.76
11053;BME280;55230;42.602;23.470;2024-01-16T18:34:21;93354.22;;;-2.77;81.59
11053;BME280;55230;42.602;23.470;2024-01-16T18:36:47;93368.09;;;-2.69;81.73
11053;BME280;55230;42.602;23.470;2024-01-16T18:39:14;93353.22;;;-2.81;81.47
11053;BME280;55230;42.602;23.470;2024-01-16T18:41:45;93367.88;;;-2.78;82.57
11053;BME280;55230;42.602;23.470;2024-01-16T18:44:10;93352.53;;;-2.92;82.86
11053;BME280;55230;42.602;23.470;2024-01-16T18:46:37;93356.59;;;-2.91;82.44
11053;BME280;55230;42.602;23.470;2024-01-16T18:49:05;93360.13;;;-2.92;81.81
11053;BME280;55230;42.602;23.470;2024-01-16T18:51:31;93371.03;;;-2.91;82.40
11053;BME280;55230;42.602;23.470;2024-01-16T18:53:56;93366.75;;;-2.96;81.77
11053;BME280;55230;42.602;23.470;2024-01-16T18:56:22;93366.25;;;-2.98;81.69
11053;BME280;55230;42.602;23.470;2024-01-16T18:58:47;93372.72;;;-2.82;80.61
11053;BME280;55230;42.602;23.470;2024-01-16T19:01:20;93358.91;;;-2.99;80.58
11053;BME280;55230;42.602;23.470;2024-01-16T19:03:58;93368.25;;;-2.95;80.18
11053;BME280;55230;42.602;23.470;2024-01-16T19:06:34;93373.16;;;-3.08;80.55
11053;BME280;55230;42.602;23.470;2024-01-16T19:09:00;93390.00;;;-2.94;80.40
11053;BME280;55230;42.602;23.470;2024-01-16T19:11:25;93379.88;;;-2.94;80.52
11053;BME280;55230;42.602;23.470;2024-01-16T19:13:52;93391.94;;;-2.81;80.21
11053;BME280;55230;42.602;23.470;2024-01-16T19:16:17;93386.22;;;-2.91;79.79
11053;BME280;55230;42.602;23.470;2024-01-16T19:18:42;93373.59;;;-3.01;79.11
11053;BME280;55230;42.602;23.470;2024-01-16T19:21:09;93374.56;;;-2.92;79.06
11053;BME280;55230;42.602;23.470;2024-01-16T19:23:35;93363.97;;;-2.99;78.31
11053;BME280;55230;42.602;23.470;2024-01-16T19:26:02;93367.06;;;-3.07;79.46
11053;BME280;55230;42.602;23.470;2024-01-16T19:28:31;93377.16;;;-3.02;80.08
11053;BME280;55230;42.602;23.470;2024-01-16T19:31:00;93368.84;;;-3.08;80.08
11053;BME280;55230;42.602;23.470;2024-01-16T19:33:27;93383.00;;;-3.02;81.11
11053;BME280;55230;42.602;23.470;2024-01-16T19:35:53;93385.94;;;-2.90;80.77
11053;BME280;55230;42.602;23.470;2024-01-16T19:38:26;93385.44;;;-2.87;81.27
11053;BME280;55230;42.602;23.470;2024-01-16T19:40:52;93358.47;;;-3.11;81.58
11053;BME280;55230;42.602;23.470;2024-01-16T19:43:23;93373.13;;;-3.03;81.66
11053;BME280;55230;42.602;23.470;2024-01-16T19:45:52;93355.16;;;-3.07;81.33
11053;BME280;55230;42.602;23.470;2024-01-16T19:48:23;93395.81;;;-2.88;80.73
11053;BME280;55230;42.602;23.470;2024-01-16T19:50:49;93397.06;;;-2.86;81.16
11053;BME280;55230;42.602;23.470;2024-01-16T19:53:14;93379.53;;;-2.77;80.82
11053;BME280;55230;42.602;23.470;2024-01-16T19:55:46;93388.97;;;-2.88;80.27
11053;BME280;55230;42.602;23.470;2024-01-16T19:58:20;93381.66;;;-2.89;80.12
11053;BME280;55230;42.602;23.470;2024-01-16T20:00:46;93393.50;;;-2.85;80.51
11053;BME280;55230;42.602;23.470;2024-01-16T20:03:20;93375.44;;;-3.12;80.70
11053;BME280;55230;42.602;23.470;2024-01-16T20:05:52;93374.66;;;-3.07;80.59
11053;BME280;55230;42.602;23.470;2024-01-16T20:08:20;93397.59;;;-2.89;81.07
11053;BME280;55230;42.602;23.470;2024-01-16T20:11:02;93366.34;;;-3.13;81.16
11053;BME280;55230;42.602;23.470;2024-01-16T20:13:32;93363.53;;;-3.11;81.13
11053;BME280;55230;42.602;23.470;2024-01-16T20:16:21;93357.78;;;-3.22;80.15
11053;BME280;55230;42.602;23.470;2024-01-16T20:19:01;93357.28;;;-3.24;80.70
11053;BME280;55230;42.602;23.470;2024-01-16T20:21:40;93404.78;;;-3.06;81.39
11053;BME280;55230;42.602;23.470;2024-01-16T20:24:14;93383.03;;;-3.12;80.86
11053;BME280;55230;42.602;23.470;2024-01-16T20:27:04;93407.16;;;-3.30;81.88
11053;BME280;55230;42.602;23.470;2024-01-16T20:29:40;93411.13;;;-3.13;81.48
11053;BME280;55230;42.602;23.470;2024-01-16T20:32:28;93386.91;;;-3.30;80.93
11053;BME280;55230;42.602;23.470;2024-01-16T20:35:00;93407.13;;;-3.25;81.80
11053;BME280;55230;42.602;23.470;2024-01-16T20:37:47;93424.78;;;-3.14;82.53